sensor_id;sensor_type;location;lat;lon;timestamp;pressure;altitude;pressure_sealevel;temperature;humidity
37200;BME280;23096;50.892;16.746;2022-12-16T00:02:10;98686.48;;;-4.38;74.34
37200;BME280;23096;50.892;16.746;2022-12-16T00:04:36;98691.91;;;-4.39;74.35
37200;BME280;23096;50.892;16.746;2022-12-16T00:07:02;98690.65;;;-4.40;74.31
37200;BME280;23096;50.892;16.746;2022-12-16T00:09:29;98685.97;;;-4.43;74.35
37200;BME280;23096;50.892;16.746;2022-12-16T00:11:58;98689.81;;;-4.39;74.41
37200;BME280;23096;50.892;16.746;2022-12-16T00:14:24;98686.91;;;-4.37;74.48
37200;BME280;23096;50.892;16.746;2022-12-16T00:16:55;98685.27;;;-4.35;74.49
37200;BME280;23096;50.892;16.746;2022-12-16T00:19:26;98691.55;;;-4.35;74.49
37200;BME280;23096;50.892;16.746;2022-12-16T00:21:52;98691.63;;;-4.32;74.53
37200;BME280;23096;50.892;16.746;2022-12-16T00:24:18;98681.11;;;-4.33;74.47
37200;BME280;23096;50.892;16.746;2022-12-16T00:26:45;98677.34;;;-4.33;74.45
37200;BME280;23096;50.892;16.746;2022-12-16T00:29:11;98680.27;;;-4.34;74.48
37200;BME280;23096;50.892;16.746;2022-12-16T00:31:38;98688.72;;;-4.30;74.59
37200;BME280;23096;50.892;16.746;2022-12-16T00:34:04;98682.53;;;-4.26;74.63
37200;BME280;23096;50.892;16.746;2022-12-16T00:36:30;98683.86;;;-4.21;74.70
37200;BME280;23096;50.892;16.746;2022-12-16T00:38:58;98684.34;;;-4.18;74.64
37200;BME280;23096;50.892;16.746;2022-12-16T00:41:24;98680.98;;;-4.17;74.62
37200;BME280;23096;50.892;16.746;2022-12-16T00:43:51;98677.70;;;-4.15;74.65
37200;BME280;23096;50.892;16.746;2022-12-16T00:46:17;98662.59;;;-4.15;74.60
37200;BME280;23096;50.892;16.746;2022-12-16T00:48:44;98662.98;;;-4.17;74.58
37200;BME280;23096;50.892;16.746;2022-12-16T00:51:11;98665.05;;;-4.18;74.57
37200;BME280;23096;50.892;16.746;2022-12-16T00:53:37;98670.05;;;-4.19;74.57
37200;BME280;23096;50.892;16.746;2022-12-16T00:56:07;98672.12;;;-4.22;74.55
37200;BME280;23096;50.892;16.746;2022-12-16T00:58:35;98651.53;;;-4.23;74.62
37200;BME280;23096;50.892;16.746;2022-12-16T01:01:02;98655.73;;;-4.24;74.61
37200;BME280;23096;50.892;16.746;2022-12-16T01:03:29;98648.12;;;-4.27;74.57
37200;BME280;23096;50.892;16.746;2022-12-16T01:05:55;98643.47;;;-4.29;74.59
37200;BME280;23096;50.892;16.746;2022-12-16T01:08:22;98640.47;;;-4.33;74.60
37200;BME280;23096;50.892;16.746;2022-12-16T01:10:49;98635.80;;;-4.36;74.51
37200;BME280;23096;50.892;16.746;2022-12-16T01:13:22;98637.41;;;-4.40;74.62
37200;BME280;23096;50.892;16.746;2022-12-16T01:15:50;98636.98;;;-4.39;74.61
37200;BME280;23096;50.892;16.746;2022-12-16T01:18:16;98640.76;;;-4.39;74.72
37200;BME280;23096;50.892;16.746;2022-12-16T01:20:43;98643.38;;;-4.35;74.83
37200;BME280;23096;50.892;16.746;2022-12-16T01:23:09;98657.70;;;-4.31;74.87
37200;BME280;23096;50.892;16.746;2022-12-16T01:25:35;98656.50;;;-4.26;74.88
37200;BME280;23096;50.892;16.746;2022-12-16T01:28:02;98660.31;;;-4.25;74.84
37200;BME280;23096;50.892;16.746;2022-12-16T01:30:28;98661.14;;;-4.26;74.76
37200;BME280;23096;50.892;16.746;2022-12-16T01:32:55;98656.47;;;-4.29;74.71
37200;BME280;23096;50.892;16.746;2022-12-16T01:35:21;98651.41;;;-4.31;74.76
37200;BME280;23096;50.892;16.746;2022-12-16T01:37:50;98647.56;;;-4.34;74.81
37200;BME280;23096;50.892;16.746;2022-12-16T01:40:20;98645.50;;;-4.33;74.84
37200;BME280;23096;50.892;16.746;2022-12-16T01:42:48;98653.08;;;-4.31;74.84
37200;BME280;23096;50.892;16.746;2022-12-16T01:47:56;98639.12;;;-4.37;74.76
37200;BME280;23096;50.892;16.746;2022-12-16T01:50:24;98643.69;;;-4.40;74.77
37200;BME280;23096;50.892;16.746;2022-12-16T01:52:52;98636.08;;;-4.43;74.77
37200;BME280;23096;50.892;16.746;2022-12-16T01:55:39;98638.98;;;-4.45;74.78
37200;BME280;23096;50.892;16.746;2022-12-16T01:58:15;98636.44;;;-4.47;74.83
37200;BME280;23096;50.892;16.746;2022-12-16T02:00:45;98638.53;;;-4.48;74.86
37200;BME280;23096;50.892;16.746;2022-12-16T02:03:13;98638.95;;;-4.47;74.87
37200;BME280;23096;50.892;16.746;2022-12-16T02:05:40;98635.56;;;-4.49;74.87
37200;BME280;23096;50.892;16.746;2022-12-16T02:08:12;98625.50;;;-4.49;74.87
37200;BME280;23096;50.892;16.746;2022-12-16T02:16:24;98619.19;;;-4.50;74.88
37200;BME280;23096;50.892;16.746;2022-12-16T02:19:07;98614.19;;;-4.49;74.97
37200;BME280;23096;50.892;16.746;2022-12-16T02:21:56;98602.12;;;-4.43;75.12
37200;BME280;23096;50.892;16.746;2022-12-16T02:27:39;98600.61;;;-4.33;75.17
37200;BME280;23096;50.892;16.746;2022-12-16T02:38:40;98607.22;;;-4.40;74.96
37200;BME280;23096;50.892;16.746;2022-12-16T02:44:13;98601.32;;;-4.42;75.05
37200;BME280;23096;50.892;16.746;2022-12-16T02:46:42;98606.35;;;-4.42;75.06
37200;BME280;23096;50.892;16.746;2022-12-16T02:51:43;98611.06;;;-4.35;75.16
37200;BME280;23096;50.892;16.746;2022-12-16T02:54:09;98609.80;;;-4.35;75.10
37200;BME280;23096;50.892;16.746;2022-12-16T02:56:40;98614.45;;;-4.33;75.24
37200;BME280;23096;50.892;16.746;2022-12-16T03:04:55;98594.41;;;-4.29;75.13
37200;BME280;23096;50.892;16.746;2022-12-16T03:07:24;98589.34;;;-4.30;75.15
37200;BME280;23096;50.892;16.746;2022-12-16T03:09:51;98591.45;;;-4.30;75.16
37200;BME280;23096;50.892;16.746;2022-12-16T03:12:20;98581.41;;;-4.28;75.25
37200;BME280;23096;50.892;16.746;2022-12-16T03:14:49;98578.90;;;-4.28;75.21
37200;BME280;23096;50.892;16.746;2022-12-16T03:17:19;98568.41;;;-4.29;75.17
37200;BME280;23096;50.892;16.746;2022-12-16T03:19:48;98570.93;;;-4.29;75.26
37200;BME280;23096;50.892;16.746;2022-12-16T03:22:21;98571.31;;;-4.30;75.20
37200;BME280;23096;50.892;16.746;2022-12-16T03:24:51;98563.77;;;-4.30;75.25
37200;BME280;23096;50.892;16.746;2022-12-16T03:27:20;98563.80;;;-4.28;75.29
37200;BME280;23096;50.892;16.746;2022-12-16T03:32:39;98554.43;;;-4.38;75.05
37200;BME280;23096;50.892;16.746;2022-12-16T03:37:50;98565.20;;;-4.46;75.25
37200;BME280;23096;50.892;16.746;2022-12-16T03:40:17;98572.78;;;-4.44;75.27
37200;BME280;23096;50.892;16.746;2022-12-16T03:42:46;98577.39;;;-4.44;75.22
37200;BME280;23096;50.892;16.746;2022-12-16T03:45:15;98572.75;;;-4.46;75.22
37200;BME280;23096;50.892;16.746;2022-12-16T03:47:42;98573.56;;;-4.47;75.28
37200;BME280;23096;50.892;16.746;2022-12-16T03:50:26;98573.95;;;-4.49;75.23
37200;BME280;23096;50.892;16.746;2022-12-16T03:52:49;98572.59;;;-4.53;75.18
37200;BME280;23096;50.892;16.746;2022-12-16T03:55:15;98578.88;;;-4.55;75.31
37200;BME280;23096;50.892;16.746;2022-12-16T03:57:41;98581.48;;;-4.49;75.50
37200;BME280;23096;50.892;16.746;2022-12-16T04:00:08;98587.88;;;-4.44;75.51
37200;BME280;23096;50.892;16.746;2022-12-16T04:02:37;98588.36;;;-4.40;75.52
37200;BME280;23096;50.892;16.746;2022-12-16T04:05:03;98587.12;;;-4.38;75.44
37200;BME280;23096;50.892;16.746;2022-12-16T04:07:31;98590.06;;;-4.37;75.52
37200;BME280;23096;50.892;16.746;2022-12-16T04:09:58;98592.58;;;-4.37;75.50
37200;BME280;23096;50.892;16.746;2022-12-16T04:12:24;98598.06;;;-4.36;75.50
37200;BME280;23096;50.892;16.746;2022-12-16T04:15:09;98598.06;;;-4.36;75.41
37200;BME280;23096;50.892;16.746;2022-12-16T04:17:53;98608.51;;;-4.38;75.45
37200;BME280;23096;50.892;16.746;2022-12-16T04:20:39;98606.80;;;-4.39;75.46
37200;BME280;23096;50.892;16.746;2022-12-16T04:23:28;98600.97;;;-4.38;75.54
37200;BME280;23096;50.892;16.746;2022-12-16T04:26:13;98599.34;;;-4.35;75.62
37200;BME280;23096;50.892;16.746;2022-12-16T04:28:41;98600.67;;;-4.30;75.64
37200;BME280;23096;50.892;16.746;2022-12-16T04:31:07;98598.66;;;-4.25;75.76
37200;BME280;23096;50.892;16.746;2022-12-16T04:33:34;98594.95;;;-4.21;75.73
37200;BME280;23096;50.892;16.746;2022-12-16T04:36:18;98597.56;;;-4.15;75.82
37200;BME280;23096;50.892;16.746;2022-12-16T04:39:03;98596.39;;;-4.11;75.81
37200;BME280;23096;50.892;16.746;2022-12-16T04:41:50;98598.58;;;-4.06;75.74
37200;BME280;23096;50.892;16.746;2022-12-16T04:44:37;98594.41;;;-4.03;75.79
37200;BME280;23096;50.892;16.746;2022-12-16T04:47:21;98600.67;;;-4.05;75.64
37200;BME280;23096;50.892;16.746;2022-12-16T04:50:07;98603.16;;;-4.07;75.63
37200;BME280;23096;50.892;16.746;2022-12-16T04:52:51;98609.03;;;-4.08;75.70
37200;BME280;23096;50.892;16.746;2022-12-16T04:55:36;98607.38;;;-4.06;75.70
37200;BME280;23096;50.892;16.746;2022-12-16T04:58:22;98604.39;;;-4.08;75.74
37200;BME280;23096;50.892;16.746;2022-12-16T05:01:06;98598.16;;;-4.05;75.72
37200;BME280;23096;50.892;16.746;2022-12-16T05:03:51;98601.98;;;-4.02;75.84
37200;BME280;23096;50.892;16.746;2022-12-16T05:06:35;98593.60;;;-4.01;75.75
37200;BME280;23096;50.892;16.746;2022-12-16T05:09:20;98597.80;;;-4.01;75.76
37200;BME280;23096;50.892;16.746;2022-12-16T05:12:05;98605.41;;;-3.98;75.84
37200;BME280;23096;50.892;16.746;2022-12-16T05:14:50;98597.88;;;-3.95;75.88
37200;BME280;23096;50.892;16.746;2022-12-16T05:17:34;98604.26;;;-3.91;75.91
37200;BME280;23096;50.892;16.746;2022-12-16T05:20:20;98602.19;;;-3.88;75.88
37200;BME280;23096;50.892;16.746;2022-12-16T05:23:07;98600.57;;;-3.86;75.88
37200;BME280;23096;50.892;16.746;2022-12-16T05:25:52;98600.57;;;-3.86;75.91
37200;BME280;23096;50.892;16.746;2022-12-16T05:28:37;98591.00;;;-3.79;75.95
37200;BME280;23096;50.892;16.746;2022-12-16T05:31:27;98585.09;;;-3.81;75.85
37200;BME280;23096;50.892;16.746;2022-12-16T05:34:12;98567.08;;;-3.79;75.83
37200;BME280;23096;50.892;16.746;2022-12-16T05:36:56;98571.25;;;-3.82;75.86
37200;BME280;23096;50.892;16.746;2022-12-16T05:39:44;98571.25;;;-3.82;75.92
37200;BME280;23096;50.892;16.746;2022-12-16T05:42:28;98558.66;;;-3.81;75.91
37200;BME280;23096;50.892;16.746;2022-12-16T05:45:13;98559.52;;;-3.79;75.92
37200;BME280;23096;50.892;16.746;2022-12-16T05:47:57;98564.56;;;-3.80;75.86
37200;BME280;23096;50.892;16.746;2022-12-16T05:50:43;98560.34;;;-3.81;75.85
37200;BME280;23096;50.892;16.746;2022-12-16T05:53:27;98555.28;;;-3.83;75.88
37200;BME280;23096;50.892;16.746;2022-12-16T05:56:12;98550.24;;;-3.83;75.86
37200;BME280;23096;50.892;16.746;2022-12-16T05:58:56;98553.18;;;-3.83;75.83
37200;BME280;23096;50.892;16.746;2022-12-16T06:01:41;98555.62;;;-3.88;75.74
37200;BME280;23096;50.892;16.746;2022-12-16T06:04:27;98555.98;;;-3.93;75.77
37200;BME280;23096;50.892;16.746;2022-12-16T06:07:11;98573.16;;;-3.94;75.83
37200;BME280;23096;50.892;16.746;2022-12-16T06:09:56;98569.83;;;-3.93;75.94
37200;BME280;23096;50.892;16.746;2022-12-16T06:12:40;98572.38;;;-3.90;76.03
37200;BME280;23096;50.892;16.746;2022-12-16T06:15:24;98566.94;;;-3.88;75.98
37200;BME280;23096;50.892;16.746;2022-12-16T06:18:09;98570.72;;;-3.88;75.97
37200;BME280;23096;50.892;16.746;2022-12-16T06:20:54;98563.62;;;-3.87;76.05
37200;BME280;23096;50.892;16.746;2022-12-16T06:23:39;98566.14;;;-3.87;75.98
37200;BME280;23096;50.892;16.746;2022-12-16T06:26:23;98564.45;;;-3.87;76.03
37200;BME280;23096;50.892;16.746;2022-12-16T06:29:07;98570.36;;;-3.86;76.00
37200;BME280;23096;50.892;16.746;2022-12-16T06:31:52;98570.72;;;-3.88;76.08
37200;BME280;23096;50.892;16.746;2022-12-16T06:34:36;98573.32;;;-3.83;76.12
37200;BME280;23096;50.892;16.746;2022-12-16T06:37:20;98567.00;;;-3.85;76.04
37200;BME280;23096;50.892;16.746;2022-12-16T06:40:05;98580.04;;;-3.84;76.13
37200;BME280;23096;50.892;16.746;2022-12-16T06:42:51;98584.63;;;-3.85;76.05
37200;BME280;23096;50.892;16.746;2022-12-16T06:45:36;98592.54;;;-3.89;76.02
37200;BME280;23096;50.892;16.746;2022-12-16T06:48:20;98597.13;;;-3.91;76.05
37200;BME280;23096;50.892;16.746;2022-12-16T06:51:05;98595.81;;;-3.94;76.02
37200;BME280;23096;50.892;16.746;2022-12-16T06:53:49;98594.55;;;-3.94;76.12
37200;BME280;23096;50.892;16.746;2022-12-16T06:56:33;98595.00;;;-3.93;76.13
37200;BME280;23096;50.892;16.746;2022-12-16T06:59:18;98594.89;;;-3.99;76.03
37200;BME280;23096;50.892;16.746;2022-12-16T07:02:02;98604.95;;;-3.99;76.15
37200;BME280;23096;50.892;16.746;2022-12-16T07:04:46;98600.38;;;-3.98;76.17
37200;BME280;23096;50.892;16.746;2022-12-16T07:07:31;98601.20;;;-3.98;76.15
37200;BME280;23096;50.892;16.746;2022-12-16T07:10:15;98595.37;;;-3.97;76.24
37200;BME280;23096;50.892;16.746;2022-12-16T07:12:59;98593.27;;;-3.96;76.26
37200;BME280;23096;50.892;16.746;2022-12-16T07:15:44;98597.91;;;-3.94;76.26
37200;BME280;23096;50.892;16.746;2022-12-16T07:18:29;98595.88;;;-3.91;76.33
37200;BME280;23096;50.892;16.746;2022-12-16T07:21:13;98584.56;;;-3.88;76.35
37200;BME280;23096;50.892;16.746;2022-12-16T07:23:57;98580.84;;;-3.85;76.31
37200;BME280;23096;50.892;16.746;2022-12-16T07:26:42;98582.05;;;-3.88;76.25
37200;BME280;23096;50.892;16.746;2022-12-16T07:29:26;98584.15;;;-3.89;76.23
37200;BME280;23096;50.892;16.746;2022-12-16T07:32:09;98589.97;;;-3.92;76.26
37200;BME280;23096;50.892;16.746;2022-12-16T07:34:54;98600.40;;;-3.95;76.30
37200;BME280;23096;50.892;16.746;2022-12-16T07:37:38;98603.81;;;-3.92;76.37
37200;BME280;23096;50.892;16.746;2022-12-16T07:40:22;98616.84;;;-3.91;76.44
37200;BME280;23096;50.892;16.746;2022-12-16T07:43:07;98625.62;;;-3.92;76.40
37200;BME280;23096;50.892;16.746;2022-12-16T07:45:51;98633.12;;;-3.97;76.42
37200;BME280;23096;50.892;16.746;2022-12-16T07:48:36;98631.86;;;-3.95;76.53
37200;BME280;23096;50.892;16.746;2022-12-16T07:51:20;98630.22;;;-3.95;76.53
37200;BME280;23096;50.892;16.746;2022-12-16T07:54:05;98634.73;;;-3.99;76.50
37200;BME280;23096;50.892;16.746;2022-12-16T07:56:49;98630.97;;;-3.99;76.56
37200;BME280;23096;50.892;16.746;2022-12-16T07:59:33;98635.55;;;-4.01;76.58
37200;BME280;23096;50.892;16.746;2022-12-16T08:02:18;98622.16;;;-4.00;76.61
37200;BME280;23096;50.892;16.746;2022-12-16T08:05:04;98620.45;;;-4.01;76.64
37200;BME280;23096;50.892;16.746;2022-12-16T08:07:49;98623.33;;;-4.05;76.68
37200;BME280;23096;50.892;16.746;2022-12-16T08:10:34;98615.80;;;-4.03;76.79
37200;BME280;23096;50.892;16.746;2022-12-16T08:13:18;98622.55;;;-4.01;76.84
37200;BME280;23096;50.892;16.746;2022-12-16T08:16:02;98630.09;;;-4.01;76.85
37200;BME280;23096;50.892;16.746;2022-12-16T08:18:47;98636.84;;;-4.00;76.90
37200;BME280;23096;50.892;16.746;2022-12-16T08:21:31;98641.06;;;-3.97;76.95
37200;BME280;23096;50.892;16.746;2022-12-16T08:24:15;98646.09;;;-3.97;76.94
37200;BME280;23096;50.892;16.746;2022-12-16T08:27:00;98641.93;;;-3.95;77.05
37200;BME280;23096;50.892;16.746;2022-12-16T08:29:44;98646.25;;;-3.90;77.09
37200;BME280;23096;50.892;16.746;2022-12-16T08:32:29;98638.72;;;-3.87;77.15
37200;BME280;23096;50.892;16.746;2022-12-16T08:35:13;98640.84;;;-3.85;77.17
37200;BME280;23096;50.892;16.746;2022-12-16T08:37:58;98640.46;;;-3.84;77.16
37200;BME280;23096;50.892;16.746;2022-12-16T08:40:43;98651.37;;;-3.83;77.17
37200;BME280;23096;50.892;16.746;2022-12-16T08:43:31;98659.31;;;-3.86;77.20
37200;BME280;23096;50.892;16.746;2022-12-16T08:46:17;98671.06;;;-3.85;77.19
37200;BME280;23096;50.892;16.746;2022-12-16T08:49:01;98672.68;;;-3.88;77.21
37200;BME280;23096;50.892;16.746;2022-12-16T08:51:45;98665.52;;;-3.90;77.25
37200;BME280;23096;50.892;16.746;2022-12-16T08:54:30;98670.52;;;-3.93;77.23
37200;BME280;23096;50.892;16.746;2022-12-16T08:57:14;98678.08;;;-3.93;77.29
37200;BME280;23096;50.892;16.746;2022-12-16T08:59:58;98688.56;;;-3.92;77.33
37200;BME280;23096;50.892;16.746;2022-12-16T09:03:06;98696.98;;;-3.90;77.41
37200;BME280;23096;50.892;16.746;2022-12-16T09:05:48;98697.83;;;-3.91;77.41
37200;BME280;23096;50.892;16.746;2022-12-16T09:08:32;98700.34;;;-3.91;77.46
37200;BME280;23096;50.892;16.746;2022-12-16T09:11:17;98700.77;;;-3.90;77.48
37200;BME280;23096;50.892;16.746;2022-12-16T09:14:01;98701.56;;;-3.93;77.48
37200;BME280;23096;50.892;16.746;2022-12-16T09:16:45;98702.34;;;-3.95;77.53
37200;BME280;23096;50.892;16.746;2022-12-16T09:19:30;98702.41;;;-3.92;77.62
37200;BME280;23096;50.892;16.746;2022-12-16T09:22:15;98696.17;;;-3.89;77.66
37200;BME280;23096;50.892;16.746;2022-12-16T09:25:03;98708.77;;;-3.89;77.61
37200;BME280;23096;50.892;16.746;2022-12-16T09:27:47;98706.19;;;-3.92;77.64
37200;BME280;23096;50.892;16.746;2022-12-16T09:30:32;98706.12;;;-3.95;77.62
37200;BME280;23096;50.892;16.746;2022-12-16T09:33:17;98703.92;;;-4.02;77.62
37200;BME280;23096;50.892;16.746;2022-12-16T09:36:01;98705.16;;;-4.03;77.70
37200;BME280;23096;50.892;16.746;2022-12-16T09:38:45;98704.31;;;-4.02;77.79
37200;BME280;23096;50.892;16.746;2022-12-16T09:41:40;98697.60;;;-4.03;77.82
37200;BME280;23096;50.892;16.746;2022-12-16T09:47:45;98702.44;;;-4.14;77.77
37200;BME280;23096;50.892;16.746;2022-12-16T09:50:39;98703.28;;;-4.14;77.86
37200;BME280;23096;50.892;16.746;2022-12-16T09:53:24;98691.56;;;-4.12;77.92
37200;BME280;23096;50.892;16.746;2022-12-16T09:56:14;98689.53;;;-4.09;77.94
37200;BME280;23096;50.892;16.746;2022-12-16T09:59:00;98684.05;;;-4.10;77.96
37200;BME280;23096;50.892;16.746;2022-12-16T10:01:47;98675.28;;;-4.09;77.99
37200;BME280;23096;50.892;16.746;2022-12-16T10:04:33;98700.89;;;-4.08;78.10
37200;BME280;23096;50.892;16.746;2022-12-16T10:07:21;98703.92;;;-4.02;78.19
37200;BME280;23096;50.892;16.746;2022-12-16T10:10:16;98699.80;;;-3.98;78.18
37200;BME280;23096;50.892;16.746;2022-12-16T10:13:08;98689.34;;;-3.96;78.19
37200;BME280;23096;50.892;16.746;2022-12-16T10:21:42;98701.62;;;-3.88;78.25
37200;BME280;23096;50.892;16.746;2022-12-16T10:24:31;98697.85;;;-3.88;78.21
37200;BME280;23096;50.892;16.746;2022-12-16T10:27:20;98701.24;;;-3.88;78.26
37200;BME280;23096;50.892;16.746;2022-12-16T10:30:10;98705.11;;;-3.81;78.36
37200;BME280;23096;50.892;16.746;2022-12-16T10:32:54;98715.66;;;-3.77;78.35
37200;BME280;23096;50.892;16.746;2022-12-16T10:35:43;98726.09;;;-3.81;78.25
37200;BME280;23096;50.892;16.746;2022-12-16T10:41:20;98739.78;;;-3.90;78.25
37200;BME280;23096;50.892;16.746;2022-12-16T10:44:21;98739.84;;;-3.87;78.33
37200;BME280;23096;50.892;16.746;2022-12-16T10:47:05;98733.97;;;-3.88;78.34
37200;BME280;23096;50.892;16.746;2022-12-16T10:49:49;98731.03;;;-3.87;78.40
37200;BME280;23096;50.892;16.746;2022-12-16T10:52:42;98744.52;;;-3.83;78.40
37200;BME280;23096;50.892;16.746;2022-12-16T10:55:56;98736.00;;;-3.90;78.34
37200;BME280;23096;50.892;16.746;2022-12-16T10:59:00;98734.36;;;-3.90;78.47
37200;BME280;23096;50.892;16.746;2022-12-16T11:02:30;98729.84;;;-3.84;78.51
37200;BME280;23096;50.892;16.746;2022-12-16T11:04:42;98725.70;;;-3.79;78.55
37200;BME280;23096;50.892;16.746;2022-12-16T11:07:29;98733.73;;;-3.76;78.50
37200;BME280;23096;50.892;16.746;2022-12-16T11:13:24;98736.59;;;-3.81;78.43
37200;BME280;23096;50.892;16.746;2022-12-16T11:16:11;98733.16;;;-3.85;78.46
37200;BME280;23096;50.892;16.746;2022-12-16T11:19:03;98719.31;;;-3.85;78.52
37200;BME280;23096;50.892;16.746;2022-12-16T11:21:47;98711.83;;;-3.82;78.64
37200;BME280;23096;50.892;16.746;2022-12-16T11:24:32;98696.78;;;-3.77;78.62
37200;BME280;23096;50.892;16.746;2022-12-16T11:33:11;98682.98;;;-3.74;78.61
37200;BME280;23096;50.892;16.746;2022-12-16T11:36:04;98677.98;;;-3.73;78.66
37200;BME280;23096;50.892;16.746;2022-12-16T11:38:51;98681.70;;;-3.76;78.63
37200;BME280;23096;50.892;16.746;2022-12-16T11:44:25;98682.90;;;-3.79;78.70
37200;BME280;23096;50.892;16.746;2022-12-16T11:47:30;98690.13;;;-3.74;78.74
37200;BME280;23096;50.892;16.746;2022-12-16T11:50:15;98693.57;;;-3.69;78.81
37200;BME280;23096;50.892;16.746;2022-12-16T11:53:01;98694.41;;;-3.70;78.62
37200;BME280;23096;50.892;16.746;2022-12-16T11:55:49;98705.63;;;-3.76;78.68
37200;BME280;23096;50.892;16.746;2022-12-16T11:58:41;98713.56;;;-3.78;78.66
37200;BME280;23096;50.892;16.746;2022-12-16T12:01:39;98715.63;;;-3.80;78.67
37200;BME280;23096;50.892;16.746;2022-12-16T12:04:25;98718.13;;;-3.82;78.69
37200;BME280;23096;50.892;16.746;2022-12-16T12:07:18;98729.42;;;-3.83;78.69
37200;BME280;23096;50.892;16.746;2022-12-16T12:10:16;98732.77;;;-3.83;78.78
37200;BME280;23096;50.892;16.746;2022-12-16T12:13:20;98728.22;;;-3.80;78.81
37200;BME280;23096;50.892;16.746;2022-12-16T12:16:05;98742.13;;;-3.76;78.90
37200;BME280;23096;50.892;16.746;2022-12-16T12:18:57;98733.77;;;-3.75;78.86
37200;BME280;23096;50.892;16.746;2022-12-16T12:24:22;98751.33;;;-3.78;78.83
37200;BME280;23096;50.892;16.746;2022-12-16T12:27:22;98742.94;;;-3.78;78.88
37200;BME280;23096;50.892;16.746;2022-12-16T12:30:13;98736.32;;;-3.73;78.98
37200;BME280;23096;50.892;16.746;2022-12-16T12:42:20;98733.98;;;-3.61;79.03
37200;BME280;23096;50.892;16.746;2022-12-16T12:51:06;98743.16;;;-3.64;78.96
37200;BME280;23096;50.892;16.746;2022-12-16T12:56:55;98756.11;;;-3.68;78.95
37200;BME280;23096;50.892;16.746;2022-12-16T13:00:42;98743.09;;;-3.69;79.01
37200;BME280;23096;50.892;16.746;2022-12-16T13:02:46;98744.78;;;-3.70;79.02
37200;BME280;23096;50.892;16.746;2022-12-16T13:05:31;98750.20;;;-3.70;79.01
37200;BME280;23096;50.892;16.746;2022-12-16T13:08:30;98756.47;;;-3.72;79.02
37200;BME280;23096;50.892;16.746;2022-12-16T13:11:35;98757.72;;;-3.72;79.07
37200;BME280;23096;50.892;16.746;2022-12-16T13:17:24;98763.27;;;-3.68;79.10
37200;BME280;23096;50.892;16.746;2022-12-16T13:23:36;98778.68;;;-3.74;79.05
37200;BME280;23096;50.892;16.746;2022-12-16T13:26:22;98785.78;;;-3.75;79.08
37200;BME280;23096;50.892;16.746;2022-12-16T13:32:25;98793.72;;;-3.77;79.11
37200;BME280;23096;50.892;16.746;2022-12-16T13:37:57;98797.05;;;-3.80;79.12
37200;BME280;23096;50.892;16.746;2022-12-16T13:43:45;98792.42;;;-3.80;79.23
37200;BME280;23096;50.892;16.746;2022-12-16T13:46:44;98806.24;;;-3.82;79.20
37200;BME280;23096;50.892;16.746;2022-12-16T14:04:32;98838.84;;;-3.88;79.39
37200;BME280;23096;50.892;16.746;2022-12-16T14:07:22;98846.00;;;-3.88;79.37
37200;BME280;23096;50.892;16.746;2022-12-16T14:10:55;98848.91;;;-3.90;79.40
37200;BME280;23096;50.892;16.746;2022-12-16T14:13:09;98861.91;;;-3.89;79.41
37200;BME280;23096;50.892;16.746;2022-12-16T14:16:14;98869.84;;;-3.91;79.42
37200;BME280;23096;50.892;16.746;2022-12-16T14:19:20;98862.27;;;-3.92;79.45
37200;BME280;23096;50.892;16.746;2022-12-16T14:25:14;98876.11;;;-3.92;79.49
37200;BME280;23096;50.892;16.746;2022-12-16T14:28:01;98883.24;;;-3.92;79.51
37200;BME280;23096;50.892;16.746;2022-12-16T14:31:00;98883.28;;;-3.90;79.53
37200;BME280;23096;50.892;16.746;2022-12-16T14:33:39;98877.02;;;-3.89;79.53
37200;BME280;23096;50.892;16.746;2022-12-16T14:36:24;98885.41;;;-3.90;79.55
37200;BME280;23096;50.892;16.746;2022-12-16T14:39:11;98887.05;;;-3.90;79.56
37200;BME280;23096;50.892;16.746;2022-12-16T14:41:58;98895.86;;;-3.90;79.59
37200;BME280;23096;50.892;16.746;2022-12-16T14:44:45;98904.29;;;-3.90;79.59
37200;BME280;23096;50.892;16.746;2022-12-16T14:47:31;98907.65;;;-3.89;79.61
37200;BME280;23096;50.892;16.746;2022-12-16T14:50:26;98914.82;;;-3.87;79.61
37200;BME280;23096;50.892;16.746;2022-12-16T14:53:17;98911.50;;;-3.86;79.64
37200;BME280;23096;50.892;16.746;2022-12-16T14:59:07;98923.22;;;-3.87;79.63
37200;BME280;23096;50.892;16.746;2022-12-16T15:01:53;98933.25;;;-3.88;79.64
37200;BME280;23096;50.892;16.746;2022-12-16T15:04:38;98923.17;;;-3.90;79.63
37200;BME280;23096;50.892;16.746;2022-12-16T15:07:23;98926.95;;;-3.90;79.67
37200;BME280;23096;50.892;16.746;2022-12-16T15:10:11;98933.63;;;-3.90;79.66
37200;BME280;23096;50.892;16.746;2022-12-16T15:12:56;98935.34;;;-3.89;79.72
37200;BME280;23096;50.892;16.746;2022-12-16T15:15:41;98945.84;;;-3.88;79.73
37200;BME280;23096;50.892;16.746;2022-12-16T15:18:31;98940.84;;;-3.87;79.76
37200;BME280;23096;50.892;16.746;2022-12-16T15:21:19;98946.33;;;-3.86;79.75
37200;BME280;23096;50.892;16.746;2022-12-16T15:24:12;98947.55;;;-3.87;79.70
37200;BME280;23096;50.892;16.746;2022-12-16T15:33:19;98955.56;;;-3.86;79.74
37200;BME280;23096;50.892;16.746;2022-12-16T15:36:50;98963.11;;;-3.86;79.76
37200;BME280;23096;50.892;16.746;2022-12-16T15:39:09;98960.55;;;-3.88;79.78
37200;BME280;23096;50.892;16.746;2022-12-16T15:41:56;98975.25;;;-3.87;79.81
37200;BME280;23096;50.892;16.746;2022-12-16T15:44:44;98980.70;;;-3.88;79.78
37200;BME280;23096;50.892;16.746;2022-12-16T15:47:30;98984.86;;;-3.88;79.85
37200;BME280;23096;50.892;16.746;2022-12-16T15:50:15;98994.59;;;-3.86;79.85
37200;BME280;23096;50.892;16.746;2022-12-16T15:56:26;98997.56;;;-3.83;79.83
37200;BME280;23096;50.892;16.746;2022-12-16T15:59:12;98996.69;;;-3.86;79.86
37200;BME280;23096;50.892;16.746;2022-12-16T16:02:17;98997.95;;;-3.86;79.86
37200;BME280;23096;50.892;16.746;2022-12-16T16:05:14;99002.52;;;-3.87;79.85
37200;BME280;23096;50.892;16.746;2022-12-16T16:07:55;99009.66;;;-3.88;79.84
37200;BME280;23096;50.892;16.746;2022-12-16T16:10:40;99015.53;;;-3.87;79.87
37200;BME280;23096;50.892;16.746;2022-12-16T16:13:26;99014.23;;;-3.89;79.88
37200;BME280;23096;50.892;16.746;2022-12-16T16:16:10;99011.75;;;-3.87;79.92